Laird, Canada
Current Conditions -  °F | °C
As of 12:00 AM on Tuesday 27 Jan 2015 (Local Time) from CYXE Reporting Station
Broken Clouds Broken Clouds  
Wind Chill: 30°   Ceiling: 11000
Heat Index: 34°   Visibility: 15mi
Dew Point: 30°   Wind: 5mph
Humidity: 87%   Direction: 190°S
Pressure: 29.82"   Gusts: NA
Location:  52.72°N, 106.58°W
Report Text: CYXE 270600Z 19004KT 15SM BKN110 01/M01 A2982 RMK AC6 SLP124
Loading
Personal Weather Stations






























Interactive Weather Map New forecast layout! Learn more

10-Day Weather Forecast

Advertisements
Track Severe Weather on mobile